createdAt,value
2023-01-10T00:01:48.383Z,3.10
2023-01-10T00:04:18.623Z,3.00
2023-01-10T00:06:52.033Z,3.00
2023-01-10T00:09:22.542Z,3.40
2023-01-10T00:12:06.459Z,3.20
2023-01-10T00:14:36.289Z,3.10
2023-01-10T00:17:06.975Z,3.10
2023-01-10T00:19:36.765Z,3.30
2023-01-10T00:22:25.480Z,3.20
2023-01-10T00:24:55.299Z,3.20
2023-01-10T00:27:25.627Z,3.20
2023-01-10T00:29:56.550Z,3.10
2023-01-10T00:32:26.673Z,3.30
2023-01-10T00:34:57.179Z,3.10
2023-01-10T00:37:30.084Z,3.20
2023-01-10T00:40:00.199Z,3.10
2023-01-10T00:42:43.513Z,3.10
2023-01-10T00:45:14.118Z,3.20
2023-01-10T00:47:44.232Z,3.20
2023-01-10T00:50:14.557Z,3.40
2023-01-10T00:52:47.737Z,3.40
2023-01-10T00:55:18.817Z,3.20
2023-01-10T00:57:49.360Z,3.10
2023-01-10T01:00:20.096Z,3.30
2023-01-10T01:02:51.780Z,3.20
2023-01-10T01:05:22.233Z,3.00
2023-01-10T01:07:56.429Z,3.20
2023-01-10T01:10:29.176Z,3.10
2023-01-10T01:13:01.637Z,3.10
2023-01-10T01:15:31.760Z,3.30
2023-01-10T01:18:02.054Z,3.60
2023-01-10T01:20:33.192Z,3.10
2023-01-10T01:23:06.366Z,3.40
2023-01-10T01:25:36.229Z,3.30
2023-01-10T01:28:06.306Z,3.20
2023-01-10T01:30:37.675Z,3.20
2023-01-10T01:33:08.140Z,3.30
2023-01-10T01:35:38.121Z,3.10
2023-01-10T01:38:10.945Z,3.50
2023-01-10T01:40:41.876Z,3.20
2023-01-10T01:43:25.902Z,3.50
2023-01-10T01:45:56.878Z,3.40
2023-01-10T01:48:34.401Z,3.20
2023-01-10T01:51:10.693Z,3.50
2023-01-10T01:53:48.283Z,3.20
2023-01-10T01:56:22.847Z,3.20
2023-01-10T01:58:57.651Z,3.20
2023-01-10T02:01:29.700Z,3.10
2023-01-10T02:04:09.277Z,3.30
2023-01-10T02:06:40.159Z,3.50
2023-01-10T02:09:20.775Z,3.40
2023-01-10T02:11:51.673Z,3.30
2023-01-10T02:14:23.199Z,3.20
2023-01-10T02:16:53.384Z,3.40
2023-01-10T02:19:31.375Z,3.20
2023-01-10T02:22:25.128Z,3.30
2023-01-10T02:25:33.795Z,3.30
2023-01-10T02:28:35.814Z,3.30
2023-01-10T02:31:30.269Z,3.30
2023-01-10T02:34:15.180Z,3.60
2023-01-10T02:36:57.997Z,3.30
2023-01-10T02:39:34.384Z,3.40
2023-01-10T02:42:10.274Z,3.30
2023-01-10T02:44:48.183Z,3.50
2023-01-10T02:47:18.293Z,3.50
2023-01-10T02:49:52.250Z,3.60
2023-01-10T02:52:26.597Z,3.30
2023-01-10T02:55:01.752Z,3.60
2023-01-10T02:57:44.975Z,3.30
2023-01-10T03:00:37.326Z,3.00
2023-01-10T03:03:27.523Z,3.30
2023-01-10T03:06:10.327Z,3.00
2023-01-10T03:08:47.084Z,3.60
2023-01-10T03:11:37.321Z,3.30
2023-01-10T03:14:10.088Z,3.30
2023-01-10T03:16:42.510Z,3.60
2023-01-10T03:19:16.052Z,3.30
2023-01-10T03:21:54.112Z,3.00
2023-01-10T03:24:28.215Z,3.10
2023-01-10T03:27:02.593Z,3.60
2023-01-10T03:29:40.116Z,3.00
2023-01-10T03:32:14.932Z,3.00
2023-01-10T03:34:45.039Z,3.20
2023-01-10T03:37:25.954Z,3.20
2023-01-10T03:40:01.871Z,3.20
2023-01-10T03:42:58.348Z,3.30
2023-01-10T03:45:31.757Z,3.20
2023-01-10T03:48:06.060Z,3.10
2023-01-10T03:50:37.531Z,3.40
2023-01-10T03:53:10.255Z,3.00
2023-01-10T03:55:41.641Z,3.00
2023-01-10T03:58:12.549Z,3.30
2023-01-10T04:00:42.282Z,3.10
2023-01-10T04:03:13.060Z,3.30
2023-01-10T04:05:42.941Z,3.10
2023-01-10T04:08:15.325Z,3.00
2023-01-10T04:10:45.074Z,3.00
2023-01-10T04:13:17.485Z,3.30
2023-01-10T04:15:47.253Z,3.20
2023-01-10T04:18:17.469Z,3.10
2023-01-10T04:20:47.351Z,3.00
2023-01-10T04:23:20.644Z,3.00
2023-01-10T04:25:53.500Z,2.90
2023-01-10T04:28:24.648Z,3.10
2023-01-10T04:30:54.579Z,3.10
2023-01-10T04:33:24.852Z,3.00
2023-01-10T04:35:55.465Z,3.00
2023-01-10T04:38:28.841Z,3.10
2023-01-10T04:40:59.884Z,3.30
2023-01-10T04:43:30.012Z,3.10
2023-01-10T04:45:59.992Z,3.20
2023-01-10T04:48:29.873Z,3.10
2023-01-10T04:50:59.674Z,3.00
2023-01-10T04:53:32.353Z,3.10
2023-01-10T04:56:06.980Z,3.10
2023-01-10T04:58:38.050Z,3.30
2023-01-10T05:01:11.903Z,3.10
2023-01-10T05:03:41.830Z,3.10
2023-01-10T05:06:12.460Z,3.10
2023-01-10T05:08:45.123Z,3.10
2023-01-10T05:11:15.823Z,3.10
2023-01-10T05:13:48.003Z,3.10
2023-01-10T05:16:18.378Z,3.50
2023-01-10T05:18:49.062Z,3.20
2023-01-10T05:21:19.619Z,3.10
2023-01-10T05:23:52.917Z,3.10
2023-01-10T05:26:25.275Z,3.20
2023-01-10T05:28:55.683Z,3.20
2023-01-10T05:31:25.553Z,3.10
2023-01-10T05:33:56.071Z,3.20
2023-01-10T05:36:25.851Z,3.20
2023-01-10T05:38:58.916Z,3.30
2023-01-10T05:41:28.768Z,3.20
2023-01-10T05:43:58.918Z,3.20
2023-01-10T05:46:28.710Z,3.10
2023-01-10T05:48:58.917Z,3.20
2023-01-10T05:51:28.852Z,3.30
2023-01-10T05:54:01.936Z,3.50
2023-01-10T05:56:31.896Z,3.50
2023-01-10T05:59:11.793Z,3.50
2023-01-10T06:01:52.430Z,3.40
2023-01-10T06:04:22.839Z,3.20
2023-01-10T06:06:52.738Z,3.40
2023-01-10T06:09:25.252Z,3.00
2023-01-10T06:11:55.024Z,3.10
2023-01-10T06:14:25.697Z,3.00
2023-01-10T06:16:55.456Z,3.10
2023-01-10T06:19:25.590Z,3.20
2023-01-10T06:21:55.370Z,3.10
2023-01-10T06:24:28.482Z,3.10
2023-01-10T06:27:01.125Z,3.10
2023-01-10T06:29:31.277Z,3.30
2023-01-10T06:32:01.116Z,3.20
2023-01-10T06:34:31.617Z,3.10
2023-01-10T06:37:01.468Z,3.50
2023-01-10T06:39:36.563Z,3.20
2023-01-10T06:42:10.948Z,3.50
2023-01-10T06:44:53.159Z,3.00
2023-01-10T06:47:24.081Z,3.00
2023-01-10T06:49:54.133Z,3.10
2023-01-10T06:52:24.329Z,3.30
2023-01-10T06:54:56.718Z,3.10
2023-01-10T06:57:28.412Z,3.10
2023-01-10T06:59:58.635Z,3.20
2023-01-10T07:02:28.465Z,3.10
2023-01-10T07:04:58.579Z,3.00
2023-01-10T07:07:28.431Z,2.90
2023-01-10T07:10:00.987Z,2.80
2023-01-10T07:12:30.831Z,2.80
2023-01-10T07:15:06.519Z,2.80
2023-01-10T07:17:39.674Z,2.90
2023-01-10T07:20:11.512Z,3.00
2023-01-10T07:22:41.357Z,2.90
2023-01-10T07:25:14.660Z,2.90
2023-01-10T07:27:45.017Z,2.90
2023-01-10T07:30:16.342Z,2.80
2023-01-10T07:32:46.159Z,3.00
2023-01-10T07:35:16.338Z,2.80
2023-01-10T07:37:46.104Z,2.80
2023-01-10T07:40:19.353Z,2.70
2023-01-10T07:42:49.152Z,2.90
2023-01-10T07:45:19.618Z,2.90
2023-01-10T07:47:49.671Z,2.90
2023-01-10T07:50:20.305Z,2.90
2023-01-10T07:52:50.117Z,3.00
2023-01-10T07:55:22.596Z,2.90
2023-01-10T07:57:53.839Z,3.20
2023-01-10T08:00:24.132Z,3.00
2023-01-10T08:02:57.673Z,3.20
2023-01-10T08:05:28.331Z,3.00
2023-01-10T08:08:00.453Z,3.00
2023-01-10T08:10:43.405Z,3.00
2023-01-10T08:13:19.022Z,3.30
2023-01-10T08:15:52.218Z,3.20
2023-01-10T08:18:29.730Z,2.90
2023-01-10T08:21:24.115Z,3.10
2023-01-10T08:23:54.795Z,3.20
2023-01-10T08:26:27.572Z,3.20
2023-01-10T08:28:57.816Z,3.10
2023-01-10T08:31:27.649Z,3.10
2023-01-10T08:33:58.212Z,3.30
2023-01-10T08:36:29.043Z,3.00
2023-01-10T08:38:59.509Z,3.10
2023-01-10T08:41:32.444Z,3.20
2023-01-10T08:44:02.801Z,3.10
2023-01-10T08:46:32.749Z,3.00
2023-01-10T08:49:03.561Z,3.10
2023-01-10T08:51:33.493Z,3.20
2023-01-10T08:54:03.579Z,3.10
2023-01-10T08:56:37.425Z,3.00
2023-01-10T08:59:07.722Z,3.10
2023-01-10T09:01:38.675Z,3.10
2023-01-10T09:04:09.330Z,3.10
2023-01-10T09:06:40.195Z,3.00
2023-01-10T09:09:10.553Z,3.20
2023-01-10T09:11:43.717Z,2.90
2023-01-10T09:14:14.530Z,3.00
2023-01-10T09:16:46.432Z,3.30
2023-01-10T09:19:16.590Z,3.10
2023-01-10T09:21:46.482Z,3.10
2023-01-10T09:24:17.322Z,3.20
2023-01-10T09:26:49.786Z,3.00
2023-01-10T09:29:20.765Z,3.30
2023-01-10T09:31:50.978Z,3.10
2023-01-10T09:34:22.476Z,3.50
2023-01-10T09:36:52.879Z,3.40
2023-01-10T09:39:24.626Z,3.30
2023-01-10T09:42:17.420Z,3.30
2023-01-10T09:44:57.018Z,3.20
2023-01-10T09:47:34.457Z,3.30
2023-01-10T09:50:21.353Z,3.00
2023-01-10T09:52:56.006Z,3.10
2023-01-10T09:55:33.635Z,3.00
2023-01-10T09:58:10.755Z,3.00
2023-01-10T10:00:46.601Z,3.00
2023-01-10T10:03:25.128Z,3.00
2023-01-10T10:06:10.521Z,3.00
2023-01-10T10:08:42.209Z,3.10
2023-01-10T10:11:35.108Z,3.00
2023-01-10T10:14:14.035Z,2.90
2023-01-10T10:16:57.180Z,2.90
2023-01-10T10:19:35.142Z,3.00
2023-01-10T10:22:15.276Z,3.00
2023-01-10T10:24:55.928Z,2.90
2023-01-10T10:27:27.431Z,3.00
2023-01-10T10:30:18.612Z,3.30
2023-01-10T10:33:13.320Z,3.00
2023-01-10T10:35:48.610Z,3.10
2023-01-10T10:38:23.491Z,2.90
2023-01-10T10:40:57.792Z,3.00
2023-01-10T10:43:33.499Z,3.20
2023-01-10T10:46:10.790Z,3.20
2023-01-10T10:48:48.060Z,3.30
2023-01-10T10:51:26.078Z,2.90
2023-01-10T10:53:58.074Z,3.10
2023-01-10T10:56:30.318Z,3.10
2023-01-10T10:59:02.169Z,3.10
2023-01-10T11:01:35.674Z,3.10
2023-01-10T11:04:11.284Z,3.10
2023-01-10T11:06:49.413Z,3.30
2023-01-10T11:09:22.920Z,3.30
2023-01-10T11:11:56.956Z,3.00
2023-01-10T11:14:46.667Z,3.10
2023-01-10T11:17:28.352Z,3.40
2023-01-10T11:20:00.568Z,3.20
2023-01-10T11:22:34.121Z,3.20
2023-01-10T11:25:05.771Z,3.50
2023-01-10T11:27:46.462Z,3.50
2023-01-10T11:30:23.919Z,3.20
2023-01-10T11:33:01.183Z,3.30
2023-01-10T11:35:37.197Z,3.20
2023-01-10T11:38:09.440Z,3.30
2023-01-10T11:40:40.112Z,3.20
2023-01-10T11:43:28.327Z,3.50
2023-01-10T11:46:02.792Z,3.40
2023-01-10T11:49:06.144Z,3.40
2023-01-10T11:51:40.059Z,3.30
2023-01-10T11:54:16.028Z,3.40
2023-01-10T11:56:50.591Z,3.30
2023-01-10T11:59:21.567Z,3.40
2023-01-10T12:02:01.568Z,3.50
2023-01-10T12:04:37.429Z,3.70
2023-01-10T12:07:11.203Z,3.50
2023-01-10T12:09:43.524Z,3.20
2023-01-10T12:12:23.232Z,3.60
2023-01-10T12:14:54.007Z,3.60
2023-01-10T12:17:28.366Z,3.50
2023-01-10T12:20:03.508Z,3.80
2023-01-10T12:22:37.059Z,3.50
2023-01-10T12:25:18.222Z,3.50
2023-01-10T12:27:50.398Z,3.50
2023-01-10T12:30:27.680Z,3.90
2023-01-10T12:33:01.171Z,3.50
2023-01-10T12:35:42.169Z,3.80
2023-01-10T12:38:25.594Z,3.70
2023-01-10T12:41:01.011Z,3.90
2023-01-10T12:43:49.928Z,3.60
2023-01-10T12:46:52.939Z,3.60
2023-01-10T12:49:24.734Z,3.50
2023-01-10T12:52:02.767Z,3.90
2023-01-10T12:54:34.032Z,3.70
2023-01-10T12:57:09.282Z,3.70
2023-01-10T12:59:42.994Z,3.70
2023-01-10T13:02:20.086Z,3.70
2023-01-10T13:04:54.089Z,3.70
2023-01-10T13:07:37.160Z,3.50
2023-01-10T13:10:09.909Z,3.50
2023-01-10T13:12:44.515Z,3.40
2023-01-10T13:15:21.348Z,3.40
2023-01-10T13:17:54.894Z,3.50
2023-01-10T13:20:31.930Z,3.40
2023-01-10T13:23:15.145Z,3.30
2023-01-10T13:25:59.019Z,3.70
2023-01-10T13:28:31.574Z,3.50
2023-01-10T13:31:03.760Z,3.80
2023-01-10T13:33:40.319Z,3.90
2023-01-10T13:36:15.396Z,3.50
2023-01-10T13:38:54.485Z,3.50
2023-01-10T13:41:52.784Z,3.50
2023-01-10T13:44:23.093Z,3.50
2023-01-10T13:46:53.529Z,3.60
2023-01-10T13:49:47.780Z,3.60
2023-01-10T13:52:35.484Z,3.50
2023-01-10T13:55:26.415Z,3.50
2023-01-10T13:57:59.387Z,3.50
2023-01-10T14:00:58.761Z,3.50
2023-01-10T14:03:55.015Z,3.80
2023-01-10T14:06:41.292Z,3.50
2023-01-10T14:09:47.676Z,3.50
2023-01-10T14:12:31.197Z,3.50
2023-01-10T14:15:04.079Z,3.70
2023-01-10T14:17:36.065Z,3.60
2023-01-10T14:20:19.488Z,3.50
2023-01-10T14:23:09.422Z,3.60
2023-01-10T14:25:41.157Z,3.50
2023-01-10T14:31:21.785Z,3.30
2023-01-10T14:33:52.271Z,3.40
2023-01-10T14:36:26.950Z,3.40
2023-01-10T14:39:01.169Z,3.40
2023-01-10T14:41:37.304Z,3.30
2023-01-10T14:44:18.692Z,3.40
2023-01-10T14:46:50.532Z,3.40
2023-01-10T14:49:27.381Z,3.30
2023-01-10T14:52:01.098Z,3.20
2023-01-10T14:54:32.163Z,3.20
2023-01-10T14:57:02.348Z,3.40
2023-01-10T14:59:38.952Z,3.20
2023-01-10T15:02:23.669Z,3.20
2023-01-10T15:04:57.411Z,3.20
2023-01-10T15:07:28.834Z,3.00
2023-01-10T15:10:02.979Z,3.20
2023-01-10T15:12:35.803Z,3.20
2023-01-10T15:15:16.404Z,3.10
2023-01-10T15:17:47.682Z,3.50
2023-01-10T15:20:18.800Z,3.10
2023-01-10T15:22:52.130Z,3.30
2023-01-10T15:25:31.761Z,3.10
2023-01-10T15:28:03.216Z,3.30
2023-01-10T15:30:40.892Z,3.10
2023-01-10T15:33:17.716Z,3.30
2023-01-10T15:35:49.356Z,3.10
2023-01-10T15:38:24.071Z,3.10
2023-01-10T15:40:58.945Z,3.10
2023-01-10T15:43:30.628Z,3.30
2023-01-10T15:46:05.495Z,3.50
2023-01-10T15:48:37.123Z,3.50
2023-01-10T15:51:16.138Z,3.00
2023-01-10T15:54:03.247Z,3.10
2023-01-10T15:56:38.496Z,3.10
2023-01-10T15:59:23.503Z,3.10
2023-01-10T16:02:05.308Z,3.30
2023-01-10T16:04:38.624Z,3.10
2023-01-10T16:07:12.059Z,3.10
2023-01-10T16:09:44.218Z,3.10
2023-01-10T16:12:40.667Z,3.30
2023-01-10T16:15:19.612Z,3.10
2023-01-10T16:17:52.988Z,3.10
2023-01-10T16:20:26.788Z,3.30
2023-01-10T16:22:57.608Z,3.10
2023-01-10T16:25:34.755Z,3.20
2023-01-10T16:28:05.028Z,3.10
2023-01-10T16:30:40.906Z,3.20
2023-01-10T16:33:19.505Z,3.10
2023-01-10T16:35:50.815Z,3.00
2023-01-10T16:38:21.619Z,3.10
2023-01-10T16:40:55.220Z,3.20
2023-01-10T16:43:22.802Z,3.20
2023-01-10T16:45:55.087Z,3.10
2023-01-10T16:48:27.716Z,3.00
2023-01-10T16:50:58.627Z,3.40
2023-01-10T16:53:29.163Z,3.00
2023-01-10T16:55:59.227Z,3.30
2023-01-10T16:58:29.222Z,3.00
2023-01-10T17:01:01.252Z,3.00
2023-01-10T17:03:38.373Z,3.10
2023-01-10T17:06:09.394Z,3.00
2023-01-10T17:08:39.216Z,3.00
2023-01-10T17:11:13.412Z,3.20
2023-01-10T17:13:45.787Z,3.00
2023-01-10T17:16:19.255Z,3.00
2023-01-10T17:18:52.310Z,3.00
2023-01-10T17:21:24.888Z,3.30
2023-01-10T17:23:54.879Z,3.00
2023-01-10T17:26:25.136Z,3.00
2023-01-10T17:28:55.059Z,3.10
2023-01-10T17:31:25.552Z,3.00
2023-01-10T17:33:58.142Z,3.00
2023-01-10T17:36:30.155Z,3.20
2023-01-10T17:39:00.090Z,3.10
2023-01-10T17:41:30.244Z,3.10
2023-01-10T17:44:00.178Z,3.30
2023-01-10T17:46:30.317Z,3.30
2023-01-10T17:49:04.379Z,3.10
2023-01-10T17:51:35.215Z,3.30
2023-01-10T17:54:05.244Z,3.10
2023-01-10T17:56:35.915Z,3.40
2023-01-10T17:59:06.084Z,3.00
2023-01-10T18:01:36.863Z,3.10
2023-01-10T18:04:09.919Z,3.20
2023-01-10T18:06:41.911Z,2.90
2023-01-10T18:09:11.970Z,3.00
2023-01-10T18:11:42.826Z,2.90
2023-01-10T18:14:25.105Z,3.10
2023-01-10T18:16:55.829Z,2.90
2023-01-10T18:19:29.963Z,3.10
2023-01-10T18:22:00.611Z,3.10
2023-01-10T18:24:30.733Z,3.10
2023-01-10T18:27:01.317Z,2.80
2023-01-10T18:29:31.120Z,2.80
2023-01-10T18:32:01.211Z,2.70
2023-01-10T18:34:35.753Z,2.90
2023-01-10T18:37:05.658Z,3.00
2023-01-10T18:39:35.499Z,2.80
2023-01-10T18:42:05.708Z,3.00
2023-01-10T18:44:35.627Z,2.90
2023-01-10T18:47:06.155Z,2.90
2023-01-10T18:49:39.043Z,2.70
2023-01-10T18:52:09.401Z,2.90
2023-01-10T18:54:42.562Z,2.80
2023-01-10T18:57:15.907Z,3.10
2023-01-10T18:59:45.842Z,2.80
2023-01-10T19:02:17.002Z,2.80
2023-01-10T19:04:51.561Z,3.30
2023-01-10T19:07:22.055Z,2.90
2023-01-10T19:09:52.433Z,2.90
2023-01-10T19:12:22.613Z,2.90
2023-01-10T19:14:55.847Z,2.90
2023-01-10T19:17:35.899Z,2.80
2023-01-10T19:20:10.703Z,2.70
2023-01-10T19:22:40.634Z,2.80
2023-01-10T19:25:11.590Z,2.80
2023-01-10T19:27:42.346Z,3.10
2023-01-10T19:30:13.722Z,2.80
2023-01-10T19:32:43.742Z,2.70
2023-01-10T19:35:16.380Z,2.70
2023-01-10T19:37:48.991Z,2.80
2023-01-10T19:40:18.950Z,3.30
2023-01-10T19:42:48.830Z,3.20
2023-01-10T19:45:19.264Z,2.80
2023-01-10T19:47:50.003Z,2.80
2023-01-10T19:50:25.152Z,2.90
2023-01-10T19:52:55.181Z,2.80
2023-01-10T19:55:25.079Z,2.70
2023-01-10T19:57:58.356Z,3.00
2023-01-10T20:00:28.610Z,2.90
2023-01-10T20:02:59.816Z,3.00
2023-01-10T20:05:35.603Z,2.70
2023-01-10T20:08:05.564Z,3.30
2023-01-10T20:10:35.579Z,2.90
2023-01-10T20:13:05.772Z,2.80
2023-01-10T20:15:36.748Z,2.90
2023-01-10T20:18:07.314Z,2.70
2023-01-10T20:20:43.502Z,2.70
2023-01-10T20:23:17.739Z,3.20
2023-01-10T20:25:57.506Z,2.80
2023-01-10T20:28:27.943Z,2.80
2023-01-10T20:30:58.233Z,2.90
2023-01-10T20:33:28.263Z,2.80
2023-01-10T20:36:04.358Z,2.60
2023-01-10T20:38:36.592Z,2.80
2023-01-10T20:41:08.791Z,2.40
2023-01-10T20:43:39.326Z,2.50
2023-01-10T20:46:11.071Z,2.60
2023-01-10T20:48:41.754Z,2.20
2023-01-10T20:51:16.363Z,2.20
2023-01-10T20:53:46.575Z,2.20
2023-01-10T20:56:18.318Z,2.20
2023-01-10T20:58:48.423Z,2.30
2023-01-10T21:01:28.865Z,2.10
2023-01-10T21:04:03.875Z,2.10
2023-01-10T21:06:38.171Z,2.20
2023-01-10T21:09:08.730Z,2.30
2023-01-10T21:11:56.604Z,2.30
2023-01-10T21:14:29.557Z,2.30
2023-01-10T21:16:59.968Z,2.60
2023-01-10T21:19:29.781Z,2.50
2023-01-10T21:22:02.676Z,2.40
2023-01-10T21:24:32.486Z,2.50
2023-01-10T21:27:02.788Z,2.90
2023-01-10T21:29:33.408Z,2.70
2023-01-10T21:32:06.042Z,2.70
2023-01-10T21:34:35.838Z,2.60
2023-01-10T21:37:09.713Z,2.50
2023-01-10T21:39:39.524Z,2.60
2023-01-10T21:42:22.582Z,2.60
2023-01-10T21:44:52.323Z,2.70
2023-01-10T21:47:22.291Z,2.60
2023-01-10T21:49:52.126Z,2.60
2023-01-10T21:52:24.967Z,2.60
2023-01-10T21:54:54.710Z,2.70
2023-01-10T21:57:25.395Z,2.80
2023-01-10T21:59:55.966Z,2.60
2023-01-10T22:02:27.425Z,2.80
2023-01-10T22:04:58.130Z,2.90
2023-01-10T22:07:31.806Z,2.70
2023-01-10T22:10:01.591Z,2.70
2023-01-10T22:12:32.320Z,2.70
2023-01-10T22:15:02.108Z,2.70
2023-01-10T22:17:32.172Z,2.70
2023-01-10T22:20:01.958Z,2.70
2023-01-10T22:22:34.576Z,2.90
2023-01-10T22:25:04.362Z,2.60
2023-01-10T22:27:34.158Z,2.70
2023-01-10T22:30:03.993Z,2.80
2023-01-10T22:32:34.047Z,2.90
2023-01-10T22:35:03.801Z,3.00
2023-01-10T22:37:36.474Z,2.60
2023-01-10T22:40:06.419Z,2.70
2023-01-10T22:42:44.557Z,3.00
2023-01-10T22:45:14.631Z,2.40
2023-01-10T22:47:44.595Z,2.70
2023-01-10T22:50:14.571Z,2.70
2023-01-10T22:52:49.751Z,2.60
2023-01-10T22:55:19.974Z,3.00
2023-01-10T22:57:50.109Z,2.80
2023-01-10T23:00:20.461Z,3.00
2023-01-10T23:02:50.652Z,2.80
2023-01-10T23:05:20.664Z,2.80
2023-01-10T23:07:53.595Z,2.90
2023-01-10T23:10:30.283Z,2.90
2023-01-10T23:13:02.221Z,2.80
2023-01-10T23:15:32.329Z,2.80
2023-01-10T23:18:02.935Z,2.80
2023-01-10T23:20:32.833Z,2.80
2023-01-10T23:23:05.562Z,2.90
2023-01-10T23:25:35.446Z,2.80
2023-01-10T23:28:05.574Z,2.80
2023-01-10T23:30:35.552Z,2.80
2023-01-10T23:33:05.763Z,2.90
2023-01-10T23:35:35.780Z,3.00
2023-01-10T23:38:08.630Z,2.90
2023-01-10T23:40:38.399Z,2.70
2023-01-10T23:43:08.971Z,2.80
2023-01-10T23:45:38.949Z,2.60
2023-01-10T23:48:10.105Z,2.60
2023-01-10T23:50:39.987Z,2.90
2023-01-10T23:53:12.947Z,2.70
2023-01-10T23:55:42.734Z,2.70
2023-01-10T23:58:12.940Z,2.80
